Time;durP1;ratioP1;P1;durP2;ratioP2;P2;SDS_P1;SDS_P2;PMS_P1;PMS_P2;Temp;Humidity;BMP_temperature;BMP_pressure;BME280_temperature;BME280_humidity;BME280_pressure;Samples;Min_cycle;Max_cycle;Signal;HPM_P1;HPM_P2
2021/10/08 00:01:55;;;;;;;0.70;0.60;;;;;;;7.52;100.00;-20886.88;4975070;28;20423;-72
2021/10/08 00:04:22;;;;;;;0.70;0.60;;;;;;;7.48;100.00;-20885.78;4973816;28;20516;-72
2021/10/08 00:06:49;;;;;;;0.70;0.60;;;;;;;7.57;100.00;-20888.28;4973330;28;20458;-72
2021/10/08 00:09:17;;;;;;;0.70;0.60;;;;;;;7.58;100.00;-20888.53;4975212;28;20451;-73
2021/10/08 00:11:44;;;;;;;0.70;0.70;;;;;;;7.65;100.00;-20890.34;4958517;28;20436;-72
2021/10/08 00:14:11;;;;;;;0.70;0.60;;;;;;;7.55;100.00;-20887.72;4973899;28;20471;-73
2021/10/08 00:16:39;;;;;;;0.87;0.80;;;;;;;7.54;100.00;-20887.44;4974439;28;20476;-73
2021/10/08 00:19:12;;;;;;;0.70;0.60;;;;;;;7.49;100.00;-20886.03;4973500;28;20452;-72
2021/10/08 00:21:39;;;;;;;0.70;0.60;;;;;;;7.46;100.00;-20885.34;4974131;28;20470;-72
2021/10/08 00:24:06;;;;;;;0.70;0.60;;;;;;;7.42;100.00;-20884.09;4974516;28;20444;-73
2021/10/08 00:26:33;;;;;;;0.70;0.60;;;;;;;7.40;100.00;-20883.53;4974924;28;20462;-73
2021/10/08 00:29:01;;;;;;;0.70;0.60;;;;;;;7.39;100.00;-20883.28;4974460;28;20484;-73
2021/10/08 00:31:29;;;;;;;0.80;0.80;;;;;;;7.36;100.00;-20882.44;4973226;28;20443;-72
2021/10/08 00:34:02;;;;;;;0.70;0.60;;;;;;;7.34;100.00;-20881.88;4973427;28;20856;-73
2021/10/08 00:36:36;;;;;;;0.70;0.70;;;;;;;7.25;100.00;-20879.66;4973683;28;21009;-73
2021/10/08 00:39:07;;;;;;;0.70;0.63;;;;;;;7.23;100.00;-20878.97;4973755;28;20546;-73
2021/10/08 00:41:40;;;;;;;0.70;0.60;;;;;;;7.18;100.00;-20877.56;4973128;28;21018;-73
2021/10/08 00:44:11;;;;;;;0.70;0.60;;;;;;;7.19;100.00;-20878.00;4974459;28;20788;-72
2021/10/08 00:46:44;;;;;;;0.70;0.60;;;;;;;7.16;100.00;-20877.16;4976519;28;20440;-73
2021/10/08 00:49:16;;;;;;;0.70;0.60;;;;;;;7.14;100.00;-20876.59;4972590;28;20474;-73
2021/10/08 00:51:45;;;;;;;0.70;0.60;;;;;;;7.11;100.00;-20875.63;4956510;28;20456;-72
2021/10/08 00:54:16;;;;;;;0.70;0.70;;;;;;;7.08;100.00;-20874.94;4954582;28;20468;-73
2021/10/08 00:56:49;;;;;;;0.70;0.60;;;;;;;7.08;100.00;-20874.94;4956567;28;20480;-73
2021/10/08 00:59:20;;;;;;;0.70;0.70;;;;;;;7.01;100.00;-20873.13;4968718;28;20876;-72
2021/10/08 01:01:50;;;;;;;0.90;0.90;;;;;;;7.06;100.00;-20874.38;4973449;28;20448;-72
2021/10/08 01:04:24;;;;;;;0.70;0.60;;;;;;;7.02;100.00;-20873.28;4956692;28;20889;-73
2021/10/08 01:07:04;;;;;;;0.70;0.63;;;;;;;7.08;100.00;-20874.94;4968677;28;20448;-73
2021/10/08 01:09:38;;;;;;;0.70;0.70;;;;;;;7.13;100.00;-20876.19;4972423;28;20455;-72
2021/10/08 01:12:09;;;;;;;0.70;0.60;;;;;;;7.10;100.00;-20875.34;4972119;28;20542;-73
2021/10/08 01:14:43;;;;;;;1.00;1.00;;;;;;;7.06;100.00;-20874.38;4972910;28;20530;-73
2021/10/08 01:17:22;;;;;;;0.97;0.97;;;;;;;7.00;100.00;-20872.72;4972479;28;20463;-73
2021/10/08 01:20:07;;;;;;;0.80;0.70;;;;;;;6.98;100.00;-20872.16;4959084;28;20510;-73
2021/10/08 01:22:46;;;;;;;0.90;0.90;;;;;;;6.95;100.00;-20871.31;4977102;28;20479;-73
2021/10/08 01:25:19;;;;;;;0.70;0.60;;;;;;;6.87;100.00;-20869.09;4961529;28;20475;-73
2021/10/08 01:27:52;;;;;;;0.70;0.60;;;;;;;6.84;100.00;-20868.41;4961489;28;20445;-73
2021/10/08 01:30:39;;;;;;;0.70;0.60;;;;;;;6.81;100.00;-20867.44;4976410;28;20452;-73
2021/10/08 01:33:10;;;;;;;0.70;0.70;;;;;;;6.85;100.00;-20868.53;4977882;28;20505;-73
2021/10/08 01:35:51;;;;;;;0.70;0.60;;;;;;;6.90;100.00;-20869.94;4978081;28;20952;-73
2021/10/08 01:38:23;;;;;;;0.80;0.80;;;;;;;6.92;100.00;-20870.50;4976263;28;20569;-73
2021/10/08 01:40:56;;;;;;;0.70;0.60;;;;;;;6.92;100.00;-20870.50;4978252;28;20447;-73
2021/10/08 01:43:27;;;;;;;0.70;0.60;;;;;;;6.89;100.00;-20869.81;4976775;28;20454;-73
2021/10/08 01:45:57;;;;;;;0.70;0.70;;;;;;;6.85;100.00;-20868.53;4977155;28;20456;-73
2021/10/08 01:48:35;;;;;;;1.10;1.00;;;;;;;6.81;100.00;-20867.44;4974917;28;20960;-73
2021/10/08 01:51:04;;;;;;;1.57;0.83;;;;;;;6.72;100.00;-20865.06;4992939;28;20448;-73
2021/10/08 01:53:50;;;;;;;0.70;0.60;;;;;;;6.71;100.00;-20864.78;4977146;28;20447;-73
2021/10/08 01:56:17;;;;;;;0.70;0.60;;;;;;;6.65;100.00;-20863.25;4959659;28;20590;-73
2021/10/08 01:58:51;;;;;;;0.70;0.60;;;;;;;6.65;100.00;-20863.25;4976106;28;20933;-73
2021/10/08 02:01:20;;;;;;;0.70;0.60;;;;;;;6.62;100.00;-20862.44;4973539;28;20457;-73
2021/10/08 02:03:51;;;;;;;0.70;0.60;;;;;;;6.59;100.00;-20861.47;4972177;28;20507;-73
2021/10/08 02:06:24;;;;;;;0.80;0.70;;;;;;;6.58;100.00;-20861.31;4956320;29;20448;-73
2021/10/08 02:08:51;;;;;;;0.70;0.60;;;;;;;6.54;100.00;-20860.22;4958286;28;20477;-72
2021/10/08 02:11:18;;;;;;;0.70;0.60;;;;;;;6.52;100.00;-20859.66;4956424;29;20476;-73
2021/10/08 02:13:46;;;;;;;0.70;0.60;;;;;;;6.49;100.00;-20858.97;4956077;28;20806;-73
2021/10/08 02:16:14;;;;;;;0.70;0.60;;;;;;;6.49;100.00;-20858.97;4956325;29;20510;-73
2021/10/08 02:18:53;;;;;;;0.70;0.60;;;;;;;6.48;100.00;-20858.53;4967164;28;20453;-72
2021/10/08 02:21:22;;;;;;;0.70;0.60;;;;;;;6.47;100.00;-20858.25;4960101;28;20439;-72
2021/10/08 02:23:51;;;;;;;0.70;0.60;;;;;;;6.45;100.00;-20857.72;4975776;28;20826;-73
2021/10/08 02:26:19;;;;;;;0.70;0.60;;;;;;;6.43;100.00;-20857.16;4975584;28;20447;-73
2021/10/08 02:28:46;;;;;;;0.70;0.60;;;;;;;6.41;100.00;-20856.59;4969489;28;20448;-73
2021/10/08 02:31:15;;;;;;;0.70;0.67;;;;;;;6.41;100.00;-20856.59;4955673;28;20437;-72
2021/10/08 02:33:44;;;;;;;0.70;0.60;;;;;;;6.40;100.00;-20856.47;4964280;28;20439;-73
2021/10/08 02:36:14;;;;;;;0.80;0.80;;;;;;;6.43;100.00;-20857.16;4975565;28;20459;-73
2021/10/08 02:38:42;;;;;;;0.70;0.60;;;;;;;6.38;100.00;-20855.91;4977102;28;20495;-72
2021/10/08 02:41:12;;;;;;;0.70;0.60;;;;;;;6.36;100.00;-20855.22;4976816;28;20450;-73
2021/10/08 02:43:39;;;;;;;0.70;0.60;;;;;;;6.33;100.00;-20854.38;4976906;28;20428;-73
2021/10/08 02:46:07;;;;;;;0.70;0.60;;;;;;;6.29;100.00;-20853.41;4977888;28;20475;-72
2021/10/08 02:48:35;;;;;;;0.70;0.60;;;;;;;6.29;100.00;-20853.41;4976126;28;20474;-73
2021/10/08 02:51:02;;;;;;;0.70;0.70;;;;;;;6.29;100.00;-20853.53;4971187;28;20494;-73
2021/10/08 02:53:29;;;;;;;0.70;0.70;;;;;;;6.27;100.00;-20852.97;4955884;29;20455;-73
2021/10/08 02:55:58;;;;;;;0.70;0.60;;;;;;;6.21;100.00;-20851.31;4951329;28;20858;-73
2021/10/08 02:58:27;;;;;;;0.70;0.60;;;;;;;6.20;100.00;-20850.91;4974595;28;20480;-71
2021/10/08 03:00:53;;;;;;;0.70;0.60;;;;;;;6.15;100.00;-20849.66;4975077;28;20436;-72
2021/10/08 03:03:21;;;;;;;0.70;0.60;;;;;;;6.16;100.00;-20849.78;4973771;28;20502;-72
2021/10/08 03:05:47;;;;;;;0.70;0.60;;;;;;;6.17;100.00;-20850.06;4957931;28;20475;-73
2021/10/08 03:08:15;;;;;;;0.70;0.63;;;;;;;6.21;100.00;-20851.31;4974574;28;20581;-73
2021/10/08 03:10:45;;;;;;;0.70;0.70;;;;;;;6.18;100.00;-20850.47;4974835;28;20448;-72
2021/10/08 03:13:12;;;;;;;0.70;0.60;;;;;;;6.19;100.00;-20850.75;4974323;28;20442;-73
2021/10/08 03:15:41;;;;;;;0.70;0.70;;;;;;;6.15;100.00;-20849.50;4974295;28;20439;-74
2021/10/08 03:18:08;;;;;;;0.70;0.70;;;;;;;6.14;100.00;-20849.22;4955460;28;20480;-72
2021/10/08 03:20:35;;;;;;;0.70;0.60;;;;;;;6.16;100.00;-20849.78;4971180;28;20953;-72
2021/10/08 03:23:02;;;;;;;0.70;0.70;;;;;;;6.14;100.00;-20849.22;4965586;28;20466;-71
2021/10/08 03:25:30;;;;;;;0.70;0.60;;;;;;;6.14;100.00;-20849.22;4973072;28;20439;-72
2021/10/08 03:27:57;;;;;;;0.70;0.60;;;;;;;6.16;100.00;-20849.94;4975561;28;20439;-72
2021/10/08 03:30:25;;;;;;;0.70;0.60;;;;;;;6.14;100.00;-20849.22;4974302;28;20498;-71
2021/10/08 03:32:54;;;;;;;0.70;0.60;;;;;;;6.14;100.00;-20849.22;4973731;28;20491;-72
2021/10/08 03:35:21;;;;;;;0.70;0.60;;;;;;;6.11;100.00;-20848.38;4973912;28;20460;-72
2021/10/08 03:40:55;;;;;;;0.70;0.70;;;;;;;5.98;100.00;-20845.06;4973946;28;20199;-71
2021/10/08 03:43:13;;;;;;;0.70;0.60;;;;;;;5.98;100.00;-20845.06;4973131;28;20247;-72
2021/10/08 03:45:50;;;;;;;0.70;0.60;;;;;;;5.94;100.00;-20843.94;4974986;28;20442;-72
2021/10/08 03:50:46;;;;;;;0.95;0.95;;;;;;;5.96;100.00;-20844.34;4973235;28;20771;-71
2021/10/08 03:53:13;;;;;;;0.70;0.60;;;;;;;5.93;100.00;-20843.66;4973474;28;20244;-73
2021/10/08 03:55:41;;;;;;;0.70;0.60;;;;;;;5.90;100.00;-20842.69;4974136;28;20905;-73
2021/10/08 03:58:09;;;;;;;0.70;0.60;;;;;;;5.86;100.00;-20841.72;4973632;28;20244;-72
2021/10/08 04:00:36;;;;;;;0.70;0.60;;;;;;;5.89;100.00;-20842.56;4972809;28;20436;-73
2021/10/08 04:03:11;;;;;;;0.70;0.60;;;;;;;5.94;100.00;-20843.81;4970121;28;20193;-72
2021/10/08 04:05:42;;;;;;;1.27;1.17;;;;;;;6.01;100.00;-20845.75;4952832;28;20239;-73
2021/10/08 04:08:12;;;;;;;0.70;0.70;;;;;;;6.00;100.00;-20845.47;4952538;28;20484;-72
2021/10/08 04:10:45;;;;;;;0.70;0.60;;;;;;;5.97;100.00;-20844.78;4952276;29;20459;-71
2021/10/08 04:13:13;;;;;;;0.70;0.60;;;;;;;5.91;100.00;-20842.97;4952711;29;20494;-72
2021/10/08 04:15:41;;;;;;;1.27;1.17;;;;;;;5.88;100.00;-20842.28;4952897;29;20442;-72
2021/10/08 04:18:11;;;;;;;0.70;0.70;;;;;;;5.84;100.00;-20841.00;4958322;28;20532;-71
2021/10/08 04:20:39;;;;;;;0.70;0.60;;;;;;;5.84;100.00;-20841.00;4956191;28;20225;-71
2021/10/08 04:23:08;;;;;;;0.70;0.70;;;;;;;5.84;100.00;-20841.16;4973442;28;20215;-72
2021/10/08 04:25:37;;;;;;;0.70;0.70;;;;;;;5.79;100.00;-20839.91;4973659;28;20534;-72
2021/10/08 04:28:06;;;;;;;1.23;1.03;;;;;;;5.82;100.00;-20840.59;4973472;28;20999;-71
2021/10/08 04:30:37;;;;;;;0.70;0.60;;;;;;;5.78;100.00;-20839.63;4973381;28;20447;-71
2021/10/08 04:33:13;;;;;;;0.70;0.60;;;;;;;5.72;100.00;-20837.97;4989863;28;20436;-71
2021/10/08 04:35:40;;;;;;;0.70;0.60;;;;;;;5.69;100.00;-20837.13;4973226;28;20188;-71
2021/10/08 04:38:09;;;;;;;0.70;0.60;;;;;;;5.69;100.00;-20837.13;4972895;28;20212;-71
2021/10/08 04:40:37;;;;;;;0.70;0.65;;;;;;;5.66;100.00;-20836.28;4972466;28;20287;-71
2021/10/08 04:43:05;;;;;;;0.70;0.60;;;;;;;5.67;100.00;-20836.56;4973401;28;20206;-72
2021/10/08 04:45:33;;;;;;;0.70;0.60;;;;;;;5.62;100.00;-20835.03;4972950;28;20431;-72
2021/10/08 04:48:00;;;;;;;0.70;0.60;;;;;;;5.57;100.00;-20833.78;4956091;28;20295;-72
2021/10/08 04:50:29;;;;;;;0.70;0.60;;;;;;;5.53;100.00;-20832.66;4972746;28;20295;-72
2021/10/08 04:52:56;;;;;;;0.70;0.60;;;;;;;5.54;100.00;-20832.94;4973055;28;20212;-71
2021/10/08 04:55:25;;;;;;;0.70;0.60;;;;;;;5.53;100.00;-20832.66;4974380;28;20220;-71
2021/10/08 04:57:52;;;;;;;0.70;0.60;;;;;;;5.51;100.00;-20832.13;4976064;28;20227;-71
2021/10/08 05:00:21;;;;;;;0.70;0.60;;;;;;;5.49;100.00;-20831.69;4976498;28;20198;-71
2021/10/08 05:02:48;;;;;;;0.70;0.60;;;;;;;5.51;100.00;-20832.13;4976802;28;20192;-71
2021/10/08 05:05:15;;;;;;;0.70;0.60;;;;;;;5.50;100.00;-20831.97;4977165;28;20203;-71
2021/10/08 05:07:42;;;;;;;0.73;0.73;;;;;;;5.50;100.00;-20831.84;4976998;28;20316;-71
2021/10/08 05:10:11;;;;;;;0.70;0.60;;;;;;;5.48;100.00;-20831.28;4976603;28;20188;-71
2021/10/08 05:12:42;;;;;;;0.70;0.60;;;;;;;5.45;100.00;-20830.44;4976847;28;20196;-71
2021/10/08 05:15:09;;;;;;;0.70;0.60;;;;;;;5.43;100.00;-20830.03;4976741;28;20600;-72
2021/10/08 05:17:37;;;;;;;0.70;0.60;;;;;;;5.46;100.00;-20830.72;4976878;28;20198;-71
2021/10/08 05:20:05;;;;;;;0.70;0.60;;;;;;;5.43;100.00;-20830.03;4976545;28;20200;-71
2021/10/08 05:22:42;;;;;;;0.70;0.70;;;;;;;5.42;100.00;-20829.59;4974894;28;20237;-71
2021/10/08 05:25:10;;;;;;;0.70;0.70;;;;;;;5.43;100.00;-20829.88;4957372;28;20193;-70
2021/10/08 05:27:40;;;;;;;0.70;0.60;;;;;;;5.45;100.00;-20830.44;4957446;28;20201;-71
2021/10/08 05:30:09;;;;;;;0.70;0.60;;;;;;;5.42;100.00;-20829.59;4962603;28;20214;-71
2021/10/08 05:32:37;;;;;;;0.70;0.70;;;;;;;5.38;100.00;-20828.63;4976209;28;20290;-71
2021/10/08 05:35:05;;;;;;;0.70;0.70;;;;;;;5.43;100.00;-20829.88;4977328;28;20196;-72
2021/10/08 05:37:32;;;;;;;0.70;0.60;;;;;;;5.41;100.00;-20829.31;4960595;28;20216;-72
2021/10/08 05:40:02;;;;;;;0.70;0.70;;;;;;;5.40;100.00;-20829.06;4975949;28;20196;-72
2021/10/08 05:42:33;;;;;;;0.70;0.60;;;;;;;5.39;100.00;-20828.78;4960412;28;20200;-73
2021/10/08 05:45:03;;;;;;;0.70;0.70;;;;;;;5.38;100.00;-20828.50;4976123;28;20224;-72
2021/10/08 05:47:30;;;;;;;0.70;0.70;;;;;;;5.38;100.00;-20828.50;4976418;28;20216;-71
2021/10/08 05:49:57;;;;;;;0.70;0.60;;;;;;;5.38;100.00;-20828.50;4960165;28;20202;-71
2021/10/08 05:52:24;;;;;;;0.70;0.70;;;;;;;5.40;100.00;-20829.06;4976094;28;20224;-72
2021/10/08 05:54:51;;;;;;;0.70;0.68;;;;;;;5.41;100.00;-20829.47;4976236;28;20646;-72
2021/10/08 05:57:20;;;;;;;0.70;0.60;;;;;;;5.50;100.00;-20831.84;4976403;28;20188;-72
2021/10/08 05:59:48;;;;;;;0.70;0.70;;;;;;;5.52;100.00;-20832.53;4975749;28;20215;-72
2021/10/08 06:02:17;;;;;;;0.70;0.60;;;;;;;5.57;100.00;-20833.78;4976600;28;20212;-72
2021/10/08 06:04:44;;;;;;;0.70;0.68;;;;;;;5.60;100.00;-20834.63;4975786;28;20200;-72
2021/10/08 06:07:14;;;;;;;0.70;0.60;;;;;;;5.66;100.00;-20836.16;4959568;28;20196;-72
2021/10/08 06:09:46;;;;;;;0.80;0.70;;;;;;;5.66;100.00;-20836.28;4976203;28;20673;-72
2021/10/08 06:12:13;;;;;;;0.70;0.70;;;;;;;5.74;100.00;-20838.38;4976266;28;20192;-72
2021/10/08 06:14:42;;;;;;;0.70;0.60;;;;;;;5.74;100.00;-20838.50;4976143;28;20439;-72
2021/10/08 06:17:10;;;;;;;0.70;0.60;;;;;;;5.77;100.00;-20839.34;4975516;28;20251;-72
2021/10/08 06:19:40;;;;;;;0.70;0.60;;;;;;;5.81;100.00;-20840.47;4975824;28;20439;-71
2021/10/08 06:22:08;;;;;;;0.70;0.60;;;;;;;5.86;100.00;-20841.56;4975557;28;20444;-71
2021/10/08 06:24:36;;;;;;;0.70;0.60;;;;;;;5.87;100.00;-20841.84;4975437;28;20526;-72
2021/10/08 06:27:05;;;;;;;0.70;0.70;;;;;;;5.88;100.00;-20842.13;4975444;28;20200;-72
2021/10/08 06:29:33;;;;;;;0.70;0.60;;;;;;;5.93;100.00;-20843.53;4974643;28;20558;-72
2021/10/08 06:32:01;;;;;;;0.80;0.70;;;;;;;6.01;100.00;-20845.75;4987863;28;20441;-72
2021/10/08 06:34:28;;;;;;;0.70;0.70;;;;;;;6.09;100.00;-20847.97;4960442;28;20189;-72
2021/10/08 06:36:56;;;;;;;0.70;0.60;;;;;;;6.18;100.00;-20850.47;4975443;28;20470;-72
2021/10/08 06:39:24;;;;;;;0.70;0.60;;;;;;;6.20;100.00;-20850.91;4975406;28;20512;-72
2021/10/08 06:41:52;;;;;;;0.77;0.77;;;;;;;6.29;100.00;-20853.41;4975047;28;20435;-71
2021/10/08 06:44:26;;;;;;;0.70;0.60;;;;;;;6.30;100.00;-20853.69;4975293;28;20195;-72
2021/10/08 06:46:54;;;;;;;0.70;0.60;;;;;;;6.34;100.00;-20854.78;4974801;28;20440;-72
2021/10/08 06:49:21;;;;;;;0.80;0.80;;;;;;;6.47;100.00;-20858.41;4975142;28;20468;-72
2021/10/08 06:51:48;;;;;;;0.67;0.60;;;;;;;6.56;100.00;-20860.63;4957738;28;20435;-72
2021/10/08 06:54:17;;;;;;;0.70;0.60;;;;;;;6.65;100.00;-20863.25;4971813;28;20496;-72
2021/10/08 06:56:45;;;;;;;0.70;0.70;;;;;;;6.82;100.00;-20867.72;4974602;28;20471;-72
2021/10/08 06:59:17;;;;;;;0.70;0.60;;;;;;;6.89;100.00;-20869.66;4971545;28;20432;-72
2021/10/08 07:01:46;;;;;;;0.70;0.60;;;;;;;6.95;100.00;-20871.47;4954847;28;20444;-72
2021/10/08 07:04:13;;;;;;;0.73;0.70;;;;;;;7.05;100.00;-20874.09;4955584;29;20452;-72
2021/10/08 07:06:44;;;;;;;0.70;0.60;;;;;;;7.21;100.00;-20878.53;4940329;29;20444;-72
2021/10/08 07:09:23;;;;;;;0.70;0.63;;;;;;;7.34;100.00;-20882.03;4940886;29;20490;-72
2021/10/08 07:11:50;;;;;;;0.73;0.73;;;;;;;7.45;100.00;-20884.94;4971710;28;21020;-72
2021/10/08 07:14:18;;;;;;;0.70;0.60;;;;;;;7.56;100.00;-20888.00;4954919;29;20848;-72
2021/10/08 07:16:45;;;;;;;0.70;0.60;;;;;;;7.62;100.00;-20889.66;4961943;28;20850;-72
2021/10/08 07:19:15;;;;;;;0.70;0.60;;;;;;;7.63;100.00;-20889.94;4975351;28;20473;-72
2021/10/08 07:21:43;;;;;;;0.70;0.60;;;;;;;7.83;100.00;-20895.22;4974713;28;20498;-72
2021/10/08 07:24:10;;;;;;;0.80;0.73;;;;;;;7.90;100.00;-20897.16;4975666;28;20975;-72
2021/10/08 07:26:38;;;;;;;0.70;0.60;;;;;;;8.13;100.00;-20903.53;4974582;28;20428;-71
2021/10/08 07:29:05;;;;;;;0.70;0.60;;;;;;;8.22;100.00;-20906.03;4974139;28;20992;-72
2021/10/08 07:31:33;;;;;;;0.70;0.60;;;;;;;8.31;100.00;-20908.25;4958048;28;20435;-72
2021/10/08 07:34:00;;;;;;;0.70;0.60;;;;;;;8.43;100.00;-20911.59;4955662;28;20416;-72
2021/10/08 07:36:27;;;;;;;0.73;0.73;;;;;;;8.88;100.00;-20923.78;4956236;28;20778;-72
2021/10/08 07:38:54;;;;;;;0.70;0.60;;;;;;;9.14;100.00;-20930.84;4954863;28;20799;-72
2021/10/08 07:41:23;;;;;;;0.70;0.60;;;;;;;9.26;100.00;-20934.19;4970980;28;20439;-72
2021/10/08 07:43:51;;;;;;;0.70;0.60;;;;;;;9.43;100.00;-20938.88;4957755;28;20425;-71
2021/10/08 07:46:18;;;;;;;0.70;0.60;;;;;;;9.53;100.00;-20941.53;4963363;28;20450;-71
2021/10/08 07:48:45;;;;;;;0.70;0.60;;;;;;;9.57;100.00;-20942.63;4967025;28;20466;-72
2021/10/08 07:51:13;;;;;;;0.70;0.60;;;;;;;9.57;100.00;-20942.63;4955818;28;20937;-72
2021/10/08 07:53:40;;;;;;;0.70;0.60;;;;;;;9.80;100.00;-20948.84;4970307;28;20492;-72
2021/10/08 07:56:06;;;;;;;0.70;0.60;;;;;;;9.91;100.00;-20951.91;4955901;28;20445;-72
2021/10/08 07:58:34;;;;;;;0.70;0.60;;;;;;;9.90;100.00;-20951.63;4970150;28;20548;-72
2021/10/08 08:01:05;;;;;;;0.70;0.60;;;;;;;9.92;100.00;-20952.19;4986787;28;20493;-72
2021/10/08 08:03:32;;;;;;;0.70;0.60;;;;;;;10.11;100.00;-20957.16;4955390;28;21042;-72
2021/10/08 08:05:59;;;;;;;0.70;0.60;;;;;;;10.19;100.00;-20959.25;4955416;28;20817;-72
2021/10/08 08:08:27;;;;;;;0.70;0.60;;;;;;;10.26;100.00;-20961.19;4986703;28;20568;-72
2021/10/08 08:10:53;;;;;;;0.70;0.60;;;;;;;10.26;100.00;-20961.19;4955289;28;20416;-72
2021/10/08 08:13:21;;;;;;;0.70;0.60;;;;;;;10.47;100.00;-20967.00;4954842;29;20770;-72
2021/10/08 08:15:48;;;;;;;0.70;0.60;;;;;;;10.36;100.00;-20963.94;4954425;29;20501;-72
2021/10/08 08:18:17;;;;;;;0.70;0.60;;;;;;;10.41;100.00;-20965.34;4955509;28;20430;-72
2021/10/08 08:20:44;;;;;;;0.70;0.60;;;;;;;10.48;100.00;-20967.28;4968506;28;20516;-72
2021/10/08 08:23:11;;;;;;;0.70;0.60;;;;;;;10.56;100.00;-20969.47;4974981;28;20816;-72
2021/10/08 08:25:39;;;;;;;0.70;0.63;;;;;;;10.73;100.00;-20973.91;4973379;28;20962;-72
2021/10/08 08:28:06;;;;;;;0.70;0.60;;;;;;;10.69;100.00;-20972.81;4966566;28;20928;-72
2021/10/08 08:30:37;;;;;;;0.70;0.60;;;;;;;10.74;100.00;-20974.19;4969762;28;20473;-72
2021/10/08 08:33:05;;;;;;;0.70;0.70;;;;;;;10.86;100.00;-20977.50;4970067;28;20452;-72
2021/10/08 08:35:34;;;;;;;0.70;0.70;;;;;;;10.88;100.00;-20978.06;4955091;28;20426;-72
2021/10/08 08:38:01;;;;;;;0.70;0.60;;;;;;;11.02;100.00;-20981.78;4955185;28;20793;-72
2021/10/08 08:40:29;;;;;;;3.83;2.10;;;;;;;11.16;100.00;-20985.66;4969769;28;20847;-73
2021/10/08 08:42:58;;;;;;;0.70;0.60;;;;;;;11.30;100.00;-20989.41;4974352;28;20419;-73
2021/10/08 08:45:27;;;;;;;1.37;1.27;;;;;;;11.39;100.00;-20991.75;4973140;28;20451;-71
2021/10/08 08:48:00;;;;;;;0.70;0.60;;;;;;;11.52;100.00;-20995.34;4972927;28;20448;-71
2021/10/08 08:50:28;;;;;;;0.70;0.60;;;;;;;11.71;100.00;-21000.44;4965795;28;20467;-72
2021/10/08 08:52:57;;;;;;;0.70;0.70;;;;;;;12.07;100.00;-21010.41;4974370;28;20449;-71
2021/10/08 08:55:25;;;;;;;0.70;0.70;;;;;;;12.34;100.00;-21017.56;4974440;28;20932;-72
2021/10/08 08:57:53;;;;;;;0.70;0.60;;;;;;;13.02;100.00;-21035.94;4983823;28;20439;-71
2021/10/08 09:00:21;;;;;;;0.70;0.60;;;;;;;14.10;100.00;-21065.00;4969627;28;20793;-71
2021/10/08 09:02:54;;;;;;;0.70;0.70;;;;;;;15.58;100.00;-20537.63;4960313;28;20454;-73
2021/10/08 09:05:23;;;;;;;0.70;0.60;;;;;;;15.99;100.00;-20047.84;4972755;28;20461;-71
2021/10/08 09:07:55;;;;;;;0.80;0.80;;;;;;;16.92;100.00;-18876.72;4972984;28;20460;-71
2021/10/08 09:10:26;;;;;;;0.97;0.97;;;;;;;17.68;100.00;-17520.38;4974334;28;20486;-72
2021/10/08 09:12:56;;;;;;;0.80;0.70;;;;;;;17.41;100.00;-16860.56;4988154;28;20426;-73
2021/10/08 09:15:24;;;;;;;0.70;0.60;;;;;;;18.51;100.00;-15119.72;4973263;28;20447;-73
2021/10/08 09:18:05;;;;;;;0.70;0.60;;;;;;;18.86;100.00;-13332.88;4974409;28;20920;-73
2021/10/08 09:20:32;;;;;;;0.70;0.70;;;;;;;18.42;100.00;-13230.03;4972671;28;20468;-72
2021/10/08 09:22:59;;;;;;;0.70;0.50;;;;;;;18.60;100.00;-13804.66;4972833;28;20459;-73
2021/10/08 09:25:30;;;;;;;1.03;0.70;;;;;;;19.60;100.00;-14832.94;4974062;28;20411;-73
2021/10/08 09:28:01;;;;;;;0.80;0.57;;;;;;;19.43;100.00;-21208.44;4968313;28;20965;-73
2021/10/08 09:30:38;;;;;;;0.70;0.60;;;;;;;19.36;100.00;-21206.38;4954834;29;20460;-74
2021/10/08 09:33:07;;;;;;;1.77;0.80;;;;;;;19.44;100.00;-21208.72;4954044;29;20437;-73
2021/10/08 09:35:35;;;;;;;0.70;0.50;;;;;;;19.53;100.00;-21211.16;4960232;28;20447;-74
2021/10/08 09:38:06;;;;;;;0.80;0.60;;;;;;;20.08;100.00;-21225.81;4974004;28;20846;-74
2021/10/08 09:40:38;;;;;;;0.80;0.60;;;;;;;19.54;100.00;-21211.31;4973171;28;20416;-75
2021/10/08 09:43:07;;;;;;;0.70;0.60;;;;;;;20.89;100.00;-21247.50;4977802;28;20924;-72
2021/10/08 09:45:37;;;;;;;0.70;0.60;;;;;;;20.76;100.00;-21243.97;4976751;28;20434;-74
2021/10/08 09:48:05;;;;;;;0.70;0.60;;;;;;;20.59;100.00;-21239.47;4977249;28;20416;-72
2021/10/08 09:50:32;;;;;;;1.43;0.90;;;;;;;20.27;100.00;-21230.84;4977268;28;20463;-73
2021/10/08 09:53:10;;;;;;;0.70;0.60;;;;;;;20.35;100.00;-21232.91;4975031;28;20447;-73
2021/10/08 09:55:42;;;;;;;0.80;0.77;;;;;;;21.15;100.00;-21254.34;4958247;28;20468;-74
2021/10/08 09:58:09;;;;;;;0.70;0.50;;;;;;;20.50;100.00;-21237.00;4958360;28;20420;-73
2021/10/08 10:00:50;;;;;;;0.80;0.80;;;;;;;21.28;100.00;-21257.88;4958147;28;20432;-73
2021/10/08 10:03:19;;;;;;;0.80;0.70;;;;;;;21.75;100.00;-21270.28;4972970;28;20429;-73
2021/10/08 10:05:46;;;;;;;0.73;0.57;;;;;;;21.86;100.00;-21273.44;4957501;28;20443;-73
2021/10/08 10:08:13;;;;;;;0.90;0.70;;;;;;;22.54;100.00;-21291.41;4957683;28;20820;-74
2021/10/08 10:10:43;;;;;;;0.73;0.60;;;;;;;21.69;100.00;-21268.78;4957783;28;20822;-73
2021/10/08 10:13:11;;;;;;;0.80;0.60;;;;;;;22.14;100.00;-21280.94;4958288;28;20483;-74
2021/10/08 10:15:40;;;;;;;1.57;0.70;;;;;;;21.32;100.00;-21258.84;4956991;29;20439;-74
2021/10/08 10:18:10;;;;;;;0.70;0.50;;;;;;;21.29;100.00;-21258.16;4972814;28;21002;-74
2021/10/08 10:20:44;;;;;;;0.90;0.70;;;;;;;22.19;100.00;-21282.28;4956162;29;20429;-74
2021/10/08 10:23:14;;;;;;;0.80;0.73;;;;;;;21.47;100.00;-21262.94;4958927;28;20463;-74
2021/10/08 10:25:44;;;;;;;0.73;0.67;;;;;;;21.10;100.00;-21253.09;4976791;28;20797;-72
2021/10/08 10:28:11;;;;;;;0.80;0.63;;;;;;;20.21;100.00;-21229.34;4956195;29;20413;-74
2021/10/08 10:30:45;;;;;;;0.70;0.60;;;;;;;21.30;100.00;-21258.28;4956486;29;20453;-73
2021/10/08 10:33:13;;;;;;;0.80;0.70;;;;;;;21.71;100.00;-21269.47;4957769;28;20432;-74
2021/10/08 10:35:46;;;;;;;1.10;1.00;;;;;;;22.62;100.00;-21293.59;4955927;29;20420;-73
2021/10/08 10:38:24;;;;;;;0.80;0.67;;;;;;;22.90;100.00;-21301.06;4957411;28;21497;-73
2021/10/08 10:41:28;;;;;;;0.70;0.50;;;;;;;22.23;100.00;-21283.25;4956977;28;20413;-73
2021/10/08 10:44:12;;;;;;;1.00;0.83;;;;;;;21.87;100.00;-21273.56;4969584;28;20549;-73
2021/10/08 10:46:58;;;;;;;0.83;0.83;;;;;;;22.29;100.00;-21284.88;4963575;28;20478;-73
2021/10/08 10:49:41;;;;;;;0.90;0.60;;;;;;;23.48;100.00;-21316.56;4976111;28;21027;-73
2021/10/08 10:52:28;;;;;;;1.00;0.70;;;;;;;23.49;100.00;-21316.84;4975409;28;20523;-73
2021/10/08 10:54:56;;;;;;;0.70;0.60;;;;;;;23.71;100.00;-21322.56;4974395;28;20443;-73
2021/10/08 10:57:56;;;;;;;0.70;0.50;;;;;;;22.70;100.00;-21295.63;4974921;28;20502;-73
2021/10/08 11:00:50;;;;;;;1.20;1.07;;;;;;;22.21;100.00;-21282.56;4975076;28;20414;-73
2021/10/08 11:03:20;;;;;;;1.00;0.90;;;;;;;22.61;100.00;-21293.44;4975142;28;20420;-74
2021/10/08 11:06:07;;;;;;;0.70;0.50;;;;;;;22.87;100.00;-21300.38;4975563;28;20502;-74
2021/10/08 11:08:34;;;;;;;0.70;0.50;;;;;;;24.30;100.00;-21338.31;4974430;28;20463;-72
2021/10/08 11:11:17;;;;;;;0.90;0.70;;;;;;;23.54;100.00;-21318.22;4959291;28;20463;-73
2021/10/08 11:13:47;;;;;;;0.80;0.70;;;;;;;22.78;100.00;-21297.94;4956859;28;20445;-74
2021/10/08 11:16:28;;;;;;;0.70;0.60;;;;;;;23.06;100.00;-21305.44;4955727;29;20451;-73
2021/10/08 11:18:57;;;;;;;0.70;0.60;;;;;;;23.11;100.00;-21306.78;4956540;28;20488;-73
2021/10/08 11:21:46;;;;;;;0.70;0.60;;;;;;;22.45;100.00;-21288.97;4956335;28;20977;-72
2021/10/08 11:24:19;;;;;;;1.40;1.30;;;;;;;22.36;100.00;-21286.66;4967692;28;20522;-73
2021/10/08 11:27:00;;;;;;;0.70;0.60;;;;;;;21.98;100.00;-21276.56;4969859;28;20439;-73
2021/10/08 11:29:30;;;;;;;0.87;0.80;;;;;;;21.99;100.00;-21276.84;4974468;28;20427;-72
2021/10/08 11:32:03;;;;;;;1.60;1.50;;;;;;;21.80;100.00;-21271.66;4970381;28;21018;-73
2021/10/08 11:34:31;;;;;;;0.73;0.70;;;;;;;22.35;100.00;-21286.38;4973667;28;20444;-72
2021/10/08 11:37:00;;;;;;;0.80;0.60;;;;;;;22.31;100.00;-21285.28;4973390;28;20436;-73
2021/10/08 11:39:28;;;;;;;0.70;0.60;;;;;;;22.50;100.00;-21290.47;4973877;28;20467;-73
2021/10/08 11:42:05;;;;;;;0.70;0.60;;;;;;;21.89;100.00;-21274.09;4993159;28;20456;-72